Woodland Park Weather Observations

home  gauges   today   yesterday   NOAA reports   graphs 
this month    this year    monthly records   extremes  

Observations from 5/23/2019 10:00 pm back to 5/20/2019 10:00 pm half hourly.

 

Observations previous 72 hours
 
Date/Time
MST
 
Temp
°F
App
Temp
°F
Heat
Index
°F
Wind
Chill
°F
Dew
Point
°F
Rel
Hum
%
 
Dir
 
 
Spd
kph
Wind
Gust
kph
 
Speed
MPH
 
Gust
MPH
Press
MSL
in
Rain
Since 12am
in
23/10:00pm 36.0 36.0 36.0 20.1 52 0.7 8.7 30.01 0.09 0 0
23/09:30pm 37.2 37.2 34.8 19.8 49 3.4 7.4 30.00 0.09 0 0
23/09:00pm 38.7 38.7 38.7 21.6 50 2.0 9.4 29.98 0.09 0 0
23/08:30pm 38.5 38.5 35.5 22.4 52 4.0 14.1 29.97 0.09 0 0
23/08:00pm 37.4 37.4 37.4 29.9 74 0.7 7.4 29.97 0.09 0 0
23/07:30pm 37.0 37.0 34.6 30.8 78 3.4 7.4 29.96 0.09 0 0
23/07:00pm 38.8 38.8 38.8 38.6 99 2.0 14.8 29.96 0.09 0 0
23/06:30pm 33.1 33.1 33.1 32.8 99 0.0 4.0 29.95 0.09 0 0
23/06:00pm 32.4 32.4 28.4 32.1 99 4.0 6.0 29.95 0.09 0 0
23/05:30pm 32.0 32.0 27.3 31.8 99 4.7 6.7 29.95 0.09 0 0
23/05:00pm 32.7 32.7 27.6 32.5 99 5.4 8.1 29.95 0.09 0 0
23/04:30pm 31.6 31.6 27.6 31.4 99 4.0 8.1 29.95 0.09 0 0
23/04:00pm 31.3 31.3 26.5 31.0 99 4.7 7.4 29.95 0.09 0 0
23/03:30pm 32.2 32.2 27.5 31.9 99 4.7 10.1 29.95 0.09 0 0
23/03:00pm 32.5 32.5 25.0 32.3 99 8.7 12.1 29.96 0.09 0 0
23/02:30pm 31.1 31.1 24.1 30.9 99 7.4 11.4 29.96 0.09 0 0
23/02:00pm 32.0 32.0 25.7 31.8 99 6.7 12.8 29.96 0.09 0 0
23/01:30pm 32.0 32.0 25.2 31.8 99 7.4 13.4 29.98 0.09 0 0
23/01:00pm 32.2 32.2 27.5 31.9 99 4.7 9.4 30.00 0.09 0 0
23/12:30pm 32.5 32.5 27.4 32.3 99 5.4 8.1 30.00 0.09 0 0
23/12:00pm 31.8 31.8 27.8 31.6 99 4.0 7.4 30.01 0.07 0 0
23/11:30am 30.4 30.4 25.4 30.1 99 4.7 9.4 30.02 0.07 0 0
23/11:00am 30.2 30.2 25.2 30.0 99 4.7 9.4 30.04 0.07 0 0
23/10:30am 30.2 30.2 24.6 30.0 99 5.4 8.7 30.04 0.05 0 0
23/10:00am 30.4 30.4 24.2 30.1 99 6.0 9.4 30.04 0.02 0 0
23/09:30am 28.6 28.6 22.1 28.3 99 6.0 9.4 30.05 0.02 0 0
23/09:00am 30.6 30.6 27.2 30.3 99 3.4 8.1 30.05 0.00 0 0
23/08:30am 30.9 30.9 26.8 30.7 99 4.0 6.7 30.05 0.00 0 0
23/08:00am 30.4 30.4 30.4 30.1 99 2.7 6.0 30.06 0.00 0 0
23/07:30am 29.5 29.5 25.1 29.2 99 4.0 8.1 30.06 0.00 0 0
23/07:00am 29.5 29.5 25.9 29.2 99 3.4 6.7 30.06 0.00 0 0
23/06:36am 29.5 29.5 25.9 29.2 99 3.4 5.4 30.06 0.00 0 0
23/06:19am 29.7 29.7 24.6 29.4 99 4.7 5.4 30.04 0.00 0 0
23/05:49am 30.0 30.0 30.0 29.8 99 2.7 3.4 30.04 0.00 0 0
23/05:19am 30.6 30.6 30.6 30.3 99 2.7 3.4 30.03 0.00 0 0
23/04:49am 30.9 30.9 27.6 30.7 99 3.4 6.0 30.04 0.00 0 0
23/04:19am 31.1 31.1 26.3 30.9 99 4.7 6.0 30.03 0.00 0 0
23/03:49am 31.3 31.3 26.5 31.0 99 4.7 6.7 30.03 0.00 0 0
23/03:19am 31.6 31.6 27.6 31.4 99 4.0 4.7 30.02 0.00 0 0
23/02:49am 31.6 31.6 26.9 31.4 99 4.7 7.4 30.03 0.00 0 0
23/02:19am 32.2 32.2 27.5 31.9 99 4.7 6.0 30.03 0.00 0 0
23/01:49am 32.4 32.4 32.4 32.1 99 1.3 2.7 30.03 0.00 0 0
23/01:19am 32.5 32.5 32.5 32.3 99 0.0 0.7 30.03 0.00 0 0
23/12:49am 32.2 32.2 32.2 31.9 99 0.0 0.0 30.03 0.00 0 0
23/12:19am 32.9 32.9 32.9 32.7 99 1.3 3.4 30.04 0.00 0 0
22/11:49pm 32.7 32.7 28.2 32.5 99 4.7 6.0 30.03 0.02 0 0
22/11:19pm 32.4 32.4 32.4 32.1 99 2.0 4.0 30.04 0.02 0 0
22/10:49pm 32.5 32.5 32.5 32.3 99 2.7 4.0 30.03 0.02 0 0
 
Date/Time
MST
 
Temp
°F
App
Temp
°F
Heat
Index
°F
Wind
Chill
°F
Dew
Point
°F
Rel
Hum
%
 
Dir
 
 
Spd
km/h
Wind
Gust
km/h
 
Speed
MPH
 
Gust
MPH
Press
MSL
in
Rain
Since 9am
in
 
Solar
W/m2
 
UV
Index
22/10:00pm 34.0 34.0 34.0 33.5 98 1.3 5.4 30.02 0.02 0 0
22/09:30pm 35.1 35.1 31.6 34.6 98 4.0 5.4 30.01 0.00 0 0
22/09:00pm 35.4 35.4 35.4 34.4 96 0.7 2.0 30.00 0.00 0 0
22/08:30pm 35.1 35.1 35.1 33.0 92 0.0 1.3 29.98 0.00 0 0
22/08:00pm 35.4 35.4 35.4 32.8 90 0.0 2.7 29.98 0.00 0 0
22/07:30pm 36.7 36.7 36.7 32.6 85 0.7 3.4 29.96 0.00 0 0
22/07:00pm 38.7 38.7 38.7 35.1 87 0.7 4.7 29.95 0.00 0 0
22/06:30pm 38.5 38.5 36.2 34.1 84 3.4 7.4 29.94 0.00 0 0
22/06:00pm 39.7 39.7 39.7 34.7 82 2.7 6.7 29.93 0.00 0 0
22/05:30pm 39.4 39.4 39.4 34.7 83 1.3 5.4 29.93 0.00 0 0
22/05:00pm 38.7 38.7 38.7 34.3 84 1.3 3.4 29.93 0.00 0 0
22/04:30pm 37.4 37.4 37.4 33.6 86 0.0 0.7 29.91 0.00 0 0
22/04:00pm 36.7 36.7 36.7 31.7 82 0.7 2.7 29.90 0.00 0 0
22/03:30pm 35.8 35.8 35.8 30.2 80 1.3 6.7 29.90 0.00 0 0
22/03:00pm 36.3 36.3 36.3 30.8 80 2.7 5.4 29.89 0.00 0 0
22/02:30pm 35.4 35.4 35.4 30.2 81 2.0 8.7 29.88 0.00 0 0
22/02:00pm 36.7 36.7 34.1 31.4 81 3.4 7.4 29.86 0.00 0 0
22/01:30pm 37.2 37.2 34.8 31.3 79 3.4 8.7 29.85 0.00 0 0
22/01:00pm 37.6 37.6 32.8 32.6 82 6.0 9.4 29.83 0.00 0 0
22/12:30pm 37.6 37.6 32.8 31.4 78 6.0 11.4 29.81 0.00 0 0
22/12:00pm 40.6 40.6 36.0 33.0 74 6.7 11.4 29.81 0.00 0 0
22/11:30am 44.4 44.4 40.2 27.0 50 7.4 11.4 29.79 0.00 0 0
22/11:00am 46.4 46.4 44.7 17.4 31 4.0 9.4 29.78 0.00 0 0
22/10:30am 42.8 42.8 38.6 15.0 32 6.7 11.4 29.78 0.00 0 0
22/10:00am 42.4 42.4 39.5 22.1 44 4.7 10.7 29.77 0.00 0 0
22/09:30am 40.8 40.8 38.9 21.1 45 3.4 9.4 29.76 0.00 0 0
22/09:00am 39.0 39.0 35.0 21.0 48 5.4 9.4 29.76 0.00 0 0
22/08:30am 37.6 37.6 34.5 20.2 49 4.0 8.1 29.75 0.00 0 0
22/08:00am 36.9 36.9 36.9 20.9 52 2.7 6.0 29.74 0.00 0 0
22/07:30am 35.1 35.1 32.3 21.8 58 3.4 8.1 29.74 0.00 0 0
22/07:00am 33.6 33.6 33.6 22.0 62 0.0 4.7 29.72 0.00 0 0
22/06:30am 32.2 32.2 32.2 21.4 64 2.0 2.7 29.71 0.00 0 0
22/06:00am 32.2 32.2 32.2 21.0 63 0.0 4.7 29.69 0.00 0 0
22/06:00am 32.2 32.2 32.2 21.0 63 0.0 4.7 29.69 0.00 0 0
22/05:20am 32.4 32.4 32.4 21.9 65 0.7 2.0 29.67 0.00 0 0
22/04:50am 32.7 32.7 32.7 21.9 64 1.3 4.0 29.68 0.00 0 0
22/04:20am 32.4 32.4 32.4 21.2 63 1.3 2.0 29.66 0.00 0 0
22/03:50am 32.5 32.5 32.5 21.7 64 1.3 2.7 29.65 0.00 0 0
22/03:20am 32.9 32.9 32.9 22.8 66 2.7 4.7 29.65 0.00 0 0
22/02:50am 32.7 32.7 32.7 24.0 70 2.0 3.4 29.65 0.00 0 0
22/02:20am 33.1 33.1 33.1 24.7 71 2.7 6.0 29.65 0.00 0 0
22/01:50am 31.8 31.8 31.8 30.0 93 2.7 6.7 29.65 0.00 0 0
22/01:20am 27.9 27.9 27.9 27.1 97 0.0 0.0 29.66 0.00 0 0
22/12:50am 27.3 27.3 27.3 26.6 97 0.0 0.7 29.65 0.00 0 0
22/12:20am 29.1 29.1 29.1 28.9 99 0.7 1.3 29.65 0.00 0 0
21/11:50pm 28.0 28.0 28.0 27.3 97 1.3 2.0 29.66 0.00 0 0
21/11:20pm 28.4 28.4 28.4 28.2 99 0.7 1.3 29.66 0.00 0 0
21/10:50pm 28.2 28.2 28.2 27.5 97 0.0 0.7 29.65 0.00 0 0
 
Date/Time
WST
 
Temp
°F
App
Temp
°F
Heat
Index
°F
Wind
Chill
°F
Dew
Point
°F
Rel
Hum
%
 
Dir
 
 
Spd
km/h
Wind
Gust
km/h
 
Spd
kts
 
Gust
kts
Press
MSL
in
Rain
Since 9am
in
 
Solar
W/m2
 
UV
Index
21/10:00pm 28.9 28.9 28.9 28.7 99 0.0 4.0 29.66 0.60 0 0
21/09:30pm 29.1 29.1 29.1 28.9 99 0.7 2.7 29.66 0.60 0 0
21/09:00pm 29.5 29.5 29.5 29.2 99 0.7 3.4 29.66 0.60 0 0
21/08:30pm 29.5 29.5 29.5 28.7 97 0.0 2.0 29.65 0.60 0 0
21/08:00pm 30.9 30.9 30.9 28.3 90 0.7 3.4 29.65 0.60 0 0
21/07:30pm 34.7 34.7 34.7 28.6 78 0.0 3.4 29.65 0.60 0 0
21/07:00pm 35.1 35.1 35.1 28.3 76 0.7 2.7 29.65 0.60 0 0
21/06:30pm 34.3 34.3 34.3 30.3 85 0.7 2.0 29.65 0.60 0 0
21/06:00pm 32.0 32.0 32.0 28.0 85 2.0 3.4 29.64 0.60 0 0
21/05:30pm 32.0 32.0 32.0 27.7 84 1.3 6.7 29.64 0.60 0 0
21/05:00pm 31.6 31.6 31.6 28.0 86 0.7 6.0 29.64 0.60 0 0
21/04:30pm 30.4 30.4 30.4 28.1 91 2.0 7.4 29.64 0.60 0 0
21/04:00pm 31.6 31.6 31.6 29.3 91 2.7 4.0 29.62 0.60 0 0
21/03:30pm 30.9 30.9 26.1 28.1 89 4.7 10.7 29.62 0.60 0 0
21/03:00pm 34.2 34.2 34.2 29.8 84 2.7 9.4 29.62 0.58 0 0
21/02:30pm 34.2 34.2 30.5 29.6 83 4.0 9.4 29.62 0.53 0 0
21/02:00pm 36.9 36.9 36.9 31.9 82 2.0 5.4 29.61 0.43 0 0
21/01:30pm 39.2 39.2 39.2 33.2 79 2.0 4.7 29.61 0.30 0 0
21/01:00pm 37.6 37.6 37.6 31.7 79 2.0 6.0 29.61 0.14 0 0
21/12:30pm 36.7 36.7 36.7 27.5 69 2.7 4.7 29.60 0.02 0 0
21/12:00pm 37.6 37.6 37.6 30.7 76 2.0 5.4 29.61 0.02 0 0
21/11:30am 34.7 34.7 34.7 27.6 75 2.0 4.0 29.61 0.00 0 0
21/11:00am 32.0 32.0 28.8 25.9 78 3.4 6.0 29.63 0.00 0 0
21/10:30am 31.5 31.5 31.5 27.5 85 0.7 3.4 29.62 0.00 0 0
21/10:00am 29.7 29.7 29.7 26.3 87 0.0 0.0 29.63 0.00 0 0
21/09:30am 28.6 28.6 28.6 26.6 92 0.0 0.0 29.65 0.00 0 0
21/09:00am 28.6 28.6 28.6 26.3 91 0.0 0.0 29.65 0.00 0 0
21/08:30am 27.7 27.7 27.7 24.9 89 0.0 0.0 29.65 0.00 0 0
21/08:00am 27.0 27.0 27.0 25.7 95 0.0 0.0 29.65 0.00 0 0
21/07:30am 25.2 25.2 25.2 24.2 96 0.0 0.0 29.66 0.00 0 0
21/07:00am 24.6 24.6 24.6 24.2 98 0.0 0.0 29.65 0.00 0 0
21/06:30am 24.3 24.3 24.3 23.8 98 0.0 0.0 29.65 0.00 0 0
21/06:30am 24.3 24.3 24.3 23.8 98 0.0 0.0 29.65 0.00 0 0
21/05:50am 24.3 24.3 24.3 24.0 99 0.0 0.0 29.65 0.00 0 0
21/05:20am 24.3 24.3 24.3 24.0 99 0.0 0.0 29.66 0.00 0 0
21/04:50am 24.6 24.6 24.6 24.4 99 0.0 0.0 29.66 0.00 0 0
21/04:20am 24.8 24.8 24.8 24.3 98 0.0 0.0 29.67 0.00 0 0
21/03:50am 24.8 24.8 24.8 24.3 98 0.0 0.0 29.69 0.00 0 0
21/03:20am 25.0 25.0 25.0 24.5 98 0.0 0.0 29.70 0.00 0 0
21/02:50am 25.3 25.3 25.3 24.9 98 0.0 0.0 29.71 0.00 0 0
21/02:20am 25.5 25.5 25.5 25.0 98 0.0 0.0 29.70 0.00 0 0
21/01:50am 25.7 25.7 25.7 25.2 98 0.0 0.0 29.70 0.00 0 0
21/01:20am 25.9 25.9 25.9 25.4 98 0.0 0.0 29.71 0.00 0 0
21/12:50am 26.1 26.1 26.1 25.6 98 0.0 0.0 29.73 0.00 0 0
21/12:20am 26.4 26.4 26.4 25.9 98 0.0 0.0 29.74 0.00 0 0
20/11:50pm 26.6 26.6 26.6 25.9 97 0.0 0.0 29.75 0.09 0 0
20/11:20pm 26.8 26.8 26.8 26.0 97 0.0 0.0 29.76 0.09 0 0
20/10:50pm 26.8 26.8 26.8 26.0 97 0.0 0.0 29.78 0.09 0 0
20/10:00pm 27.3 27.3 27.3 26.6 97 0.0 0.0 29.80 0.09 0 0
 
Date/Time
MST
 
Temp
°F
App
Temp
°F
Heat
Index
°F
Wind
Chill
°F
Dew
Point
°F
Rel
Hum
%
 
Dir
 
 
Spd
km/h
Wind
Gust
km/h
 
Speed
MPH
 
Gust
MPH
Press
MSL
in
Rain
Since 9am
in
 
Solar
W/m2
 
UV
Index




page updated 5/23/2019 10:00:01 PM
powered by  cumulus v1.9.4 (1099)
cumulus software support forum